Alkin Kalkavan — TCOL6 — position and weather

sailwx.info

Track history (hours):
 
Tides and Currents Weather Stations Pressure Air Temp Water Temp Dewpoint Dewpoint Depression Visibility Wind Speed Wind Dir Waves Ship Positions

Alkin Kalkavan

Last reported at 2015-Jul-05 07:12 UTC. Time now 2015-Jul-07 19:44 UTC.
Position N 40°53' E 028°28'.

Length 148 m; draft 6.9 m.

Type: Ship (hazmat cat A). MMSI: 271000905.

Date/timePositionNaut miles runAvg speedWind from/ knotsBaromVisibWave heightAir tempDewpointWater temp
2015-Jul-05 07:12N 40°53' E 028°28'1014.6
2015-Jul-05 06:32N 40°56' E 028°40'2 0.7
2015-Jul-05 03:25N 40°58' E 028°41'0 0.0
2015-Jul-04 23:28N 40°58' E 028°41'2 2.4
2015-Jul-04 22:30N 40°56' E 028°42'7 3.8
2015-Jul-04 20:33N 40°51' E 028°50'1515.1
2015-Jul-04 19:33N 40°46' E 029°09'21 0.7
2015-Jul-03 13:32N 40°25' E 029°05'1310.0
2015-Jul-03 12:12N 40°26' E 028°47'341 8.4
2015-Jul-01 19:33N 35°02' E 031°03'5014.7
2015-Jul-01 16:09N 34°31' E 031°50'914.5
2015-Jul-01 15:33N 34°25' E 031°58'1714.7
2015-Jul-01 14:23N 34°14' E 032°15'3114.5
2015-Jul-01 12:16N 33°55' E 032°43'11914.7
2015-Jul-01 04:10N 32°55' E 034°47'9 0.8
2015-Jun-30 17:33N 32°47' E 034°49'1616.2
2015-Jun-30 16:33N 32°31' E 034°44'1615.9
2015-Jun-30 15:33N 32°16' E 034°39'  
2015-Jun-26 02:33N 35°08' E 034°08'  
Track history (hours):
 
Tides and Currents Weather Stations Pressure Air Temp Water Temp Dewpoint Dewpoint Depression Visibility Wind Speed Wind Dir Waves Ship Positions

Alkin Kalkavan

Last reported at 2015-Jul-05 07:12 UTC. Time now 2015-Jul-07 19:44 UTC.
Position N 40°53' E 028°28'.

Length 148 m; draft 6.9 m.

Type: Ship (hazmat cat A). MMSI: 271000905.

Date/timePositionNaut miles runAvg speedWind from/ knotsBaromVisibWave heightAir tempDewpointWater temp
2015-Jul-05 07:12N 40°53' E 028°28'1014.6
2015-Jul-05 06:32N 40°56' E 028°40'2 0.7
2015-Jul-05 03:25N 40°58' E 028°41'0 0.0
2015-Jul-04 23:28N 40°58' E 028°41'2 2.4
2015-Jul-04 22:30N 40°56' E 028°42'7 3.8
2015-Jul-04 20:33N 40°51' E 028°50'1515.1
2015-Jul-04 19:33N 40°46' E 029°09'21 0.7
2015-Jul-03 13:32N 40°25' E 029°05'1310.0
2015-Jul-03 12:12N 40°26' E 028°47'341 8.4
2015-Jul-01 19:33N 35°02' E 031°03'5014.7
2015-Jul-01 16:09N 34°31' E 031°50'914.5
2015-Jul-01 15:33N 34°25' E 031°58'1714.7
2015-Jul-01 14:23N 34°14' E 032°15'3114.5
2015-Jul-01 12:16N 33°55' E 032°43'11914.7
2015-Jul-01 04:10N 32°55' E 034°47'9 0.8
2015-Jun-30 17:33N 32°47' E 034°49'1616.2
2015-Jun-30 16:33N 32°31' E 034°44'1615.9
2015-Jun-30 15:33N 32°16' E 034°39'  
2015-Jun-26 02:33N 35°08' E 034°08'  

Dump ship's entire track history